createdAt,value
2022-09-04T00:01:45.302Z,100045.88
2022-09-04T00:05:55.707Z,100045.66
2022-09-04T00:10:28.303Z,100046.22
2022-09-04T00:14:51.522Z,100049.59
2022-09-04T00:19:27.617Z,100052.97
2022-09-04T00:23:55.956Z,100055.47
2022-09-04T00:28:09.703Z,100053.09
2022-09-04T00:32:40.175Z,100045.28
2022-09-04T00:36:49.938Z,100055.03
2022-09-04T00:41:11.084Z,100049.28
2022-09-04T00:45:51.285Z,100063.97
2022-09-04T00:50:01.093Z,100057.00
2022-09-04T00:54:42.952Z,100061.66
2022-09-04T00:58:51.782Z,100057.22
2022-09-04T01:03:27.580Z,100058.41
2022-09-04T01:07:56.821Z,100067.16
2022-09-04T01:12:18.121Z,100068.69
2022-09-04T01:16:54.345Z,100076.50
2022-09-04T01:21:31.420Z,100075.69
2022-09-04T01:26:09.954Z,100083.34
2022-09-04T01:30:13.472Z,100091.72
2022-09-04T01:34:45.552Z,100085.88
2022-09-04T01:38:56.358Z,100086.25
2022-09-04T01:43:13.182Z,100073.97
2022-09-04T01:47:47.276Z,100062.78
2022-09-04T01:51:57.803Z,100088.81
2022-09-04T01:56:09.922Z,100085.59
2022-09-04T02:00:14.187Z,100094.69
2022-09-04T02:04:39.036Z,100084.59
2022-09-04T02:08:58.046Z,100092.88
2022-09-04T02:13:47.026Z,100090.72
2022-09-04T02:18:33.650Z,100095.72
2022-09-04T02:23:13.715Z,100095.09
2022-09-04T02:27:23.861Z,100103.38
2022-09-04T02:31:35.267Z,100099.16
2022-09-04T02:36:05.506Z,100105.00
2022-09-04T02:40:18.363Z,100099.25
2022-09-04T02:44:37.644Z,100102.38
2022-09-04T02:48:55.256Z,100108.19
2022-09-04T02:53:20.871Z,100117.47
2022-09-04T02:57:39.533Z,100117.47
2022-09-04T03:01:53.994Z,100120.97
2022-09-04T03:06:04.076Z,100123.59
2022-09-04T03:10:13.287Z,100125.31
2022-09-04T03:14:36.065Z,100112.66
2022-09-04T03:19:08.542Z,100120.94
2022-09-04T03:23:20.945Z,100128.41
2022-09-04T03:27:22.725Z,100138.81
2022-09-04T03:31:49.614Z,100130.28
2022-09-04T03:36:07.975Z,100133.97
2022-09-04T03:40:26.005Z,100135.19
2022-09-04T03:44:42.101Z,100127.03
2022-09-04T03:49:08.123Z,100132.50
2022-09-04T03:53:34.157Z,100133.97
2022-09-04T03:58:06.204Z,100137.59
2022-09-04T04:02:26.303Z,100154.00
2022-09-04T04:06:48.054Z,100149.78
2022-09-04T04:11:24.157Z,100139.97
2022-09-04T04:15:52.706Z,100152.34
2022-09-04T04:20:31.674Z,100162.19
2022-09-04T04:24:55.588Z,100156.16
2022-09-04T04:29:26.761Z,100159.72
2022-09-04T04:33:48.261Z,100166.19
2022-09-04T04:38:18.303Z,100168.56
2022-09-04T04:42:40.831Z,100174.03
2022-09-04T04:47:15.864Z,100171.75
2022-09-04T04:51:34.107Z,100171.03
2022-09-04T04:56:15.527Z,100177.50
2022-09-04T05:00:27.697Z,100195.16
2022-09-04T05:04:47.645Z,100194.81
2022-09-04T05:09:34.805Z,100198.97
2022-09-04T05:13:48.584Z,100191.72
2022-09-04T05:18:11.588Z,100190.22
2022-09-04T05:22:34.351Z,100188.97
2022-09-04T05:26:44.265Z,100198.94
2022-09-04T05:31:10.824Z,100201.41
2022-09-04T05:35:45.440Z,100196.72
2022-09-04T05:40:07.266Z,100208.75
2022-09-04T05:44:21.851Z,100202.72
2022-09-04T05:48:48.676Z,100206.78
2022-09-04T05:53:30.464Z,100208.19
2022-09-04T05:58:18.449Z,100220.03
2022-09-04T06:03:18.343Z,100225.25
2022-09-04T06:07:52.399Z,100214.53
2022-09-04T06:12:37.576Z,100238.19
2022-09-04T06:17:00.952Z,100238.38
2022-09-04T06:21:25.491Z,100241.47
2022-09-04T06:26:00.456Z,100250.88
2022-09-04T06:30:13.033Z,100263.91
2022-09-04T06:35:00.787Z,100260.25
2022-09-04T06:39:33.689Z,100272.25
2022-09-04T06:44:04.463Z,100272.06
2022-09-04T06:48:14.010Z,100279.16
2022-09-04T06:52:49.568Z,100271.03
2022-09-04T06:57:13.847Z,100267.94
2022-09-04T07:01:49.044Z,100290.88
2022-09-04T07:06:09.291Z,100287.94
2022-09-04T07:10:15.881Z,100291.34
2022-09-04T07:14:40.905Z,100294.16
2022-09-04T07:18:56.109Z,100291.97
2022-09-04T07:23:27.626Z,100291.56
2022-09-04T07:28:15.012Z,100295.47
2022-09-04T07:33:00.779Z,100293.00
2022-09-04T07:37:25.136Z,100302.63
2022-09-04T07:42:13.711Z,100313.63
2022-09-04T07:46:44.457Z,100310.38
2022-09-04T07:51:15.442Z,100314.25
2022-09-04T07:55:41.818Z,100331.50
2022-09-04T08:00:05.249Z,100323.13
2022-09-04T08:04:45.401Z,100315.63
2022-09-04T08:09:29.403Z,100328.59
2022-09-04T08:14:02.692Z,100327.63
2022-09-04T08:18:55.773Z,100333.94
2022-09-04T08:23:32.109Z,100332.25
2022-09-04T08:28:19.222Z,100336.50
2022-09-04T08:33:05.794Z,100335.56
2022-09-04T08:37:42.698Z,100344.19
2022-09-04T08:42:50.555Z,100358.13
2022-09-04T08:47:13.268Z,100341.56
2022-09-04T08:51:49.850Z,100342.59
2022-09-04T08:56:52.275Z,100343.16
2022-09-04T09:01:12.637Z,100346.22
2022-09-04T09:06:00.402Z,100348.13
2022-09-04T09:10:32.008Z,100357.00
2022-09-04T09:15:23.414Z,100351.66
2022-09-04T09:19:51.736Z,100343.00
2022-09-04T09:24:26.343Z,100343.00
2022-09-04T09:29:05.075Z,100357.16
2022-09-04T09:34:00.938Z,100350.94
2022-09-04T09:38:38.021Z,100357.41
2022-09-04T09:43:21.510Z,100345.00
2022-09-04T09:47:57.138Z,100345.31
2022-09-04T09:52:55.863Z,100339.81
2022-09-04T09:57:14.476Z,100344.00
2022-09-04T10:01:24.987Z,100346.94
2022-09-04T10:06:00.304Z,100330.47
2022-09-04T10:10:29.355Z,100333.78
2022-09-04T10:15:04.750Z,100333.50
2022-09-04T10:19:28.220Z,100327.56
2022-09-04T10:23:58.960Z,100322.44
2022-09-04T10:28:19.590Z,100318.50
2022-09-04T10:32:47.300Z,100321.09
2022-09-04T10:37:16.824Z,100317.78
2022-09-04T10:41:29.249Z,100321.34
2022-09-04T10:46:13.925Z,100331.56
2022-09-04T10:51:22.865Z,100332.63
2022-09-04T10:55:46.057Z,100333.19
2022-09-04T11:00:18.696Z,100325.28
2022-09-04T11:04:54.931Z,100334.09
2022-09-04T11:09:19.357Z,100332.63
2022-09-04T11:13:38.099Z,100328.66
2022-09-04T11:18:22.319Z,100332.84
2022-09-04T11:22:47.836Z,100329.59
2022-09-04T11:27:08.316Z,100332.16
2022-09-04T11:31:49.051Z,100331.91
2022-09-04T11:36:29.619Z,100327.84
2022-09-04T11:41:29.045Z,100323.34
2022-09-04T11:45:57.050Z,100330.72
2022-09-04T11:50:29.268Z,100337.22
2022-09-04T11:55:07.672Z,100335.44
2022-09-04T11:59:39.824Z,100332.41
2022-09-04T12:04:43.256Z,100338.31
2022-09-04T12:09:22.481Z,100342.28
2022-09-04T12:13:47.359Z,100345.50
2022-09-04T12:18:08.449Z,100346.25
2022-09-04T12:22:22.734Z,100335.84
2022-09-04T12:26:52.097Z,100330.66
2022-09-04T12:31:38.631Z,100336.81
2022-09-04T12:36:14.457Z,100333.81
2022-09-04T12:40:37.326Z,100327.94
2022-09-04T12:45:05.389Z,100329.94
2022-09-04T12:49:47.754Z,100330.50
2022-09-04T12:53:52.791Z,100328.47
2022-09-04T12:58:31.265Z,100340.56
2022-09-04T13:03:11.761Z,100340.38
2022-09-04T13:07:27.042Z,100326.16
2022-09-04T13:11:57.903Z,100329.59
2022-09-04T13:16:23.978Z,100326.13
2022-09-04T13:20:58.095Z,100321.22
2022-09-04T13:25:52.445Z,100324.22
2022-09-04T13:30:21.166Z,100321.97
2022-09-04T13:34:44.715Z,100332.97
2022-09-04T13:39:10.672Z,100350.22
2022-09-04T13:43:36.472Z,100349.00
2022-09-04T13:48:07.179Z,100342.66
2022-09-04T13:52:14.946Z,100348.06
2022-09-04T13:56:19.822Z,100342.94
2022-09-04T14:00:22.405Z,100327.59
2022-09-04T14:04:28.724Z,100345.41
2022-09-04T14:08:31.349Z,100338.19
2022-09-04T14:13:15.364Z,100336.09
2022-09-04T14:17:26.809Z,100340.31
2022-09-04T14:21:53.558Z,100332.66
2022-09-04T14:26:24.532Z,100330.53
2022-09-04T14:30:26.395Z,100334.69
2022-09-04T14:34:41.670Z,100337.78
2022-09-04T14:39:04.709Z,100337.06
2022-09-04T14:44:01.319Z,100330.97
2022-09-04T14:48:07.671Z,100343.53
2022-09-04T14:52:23.051Z,100337.94
2022-09-04T14:56:38.032Z,100337.75
2022-09-04T15:01:07.221Z,100347.53
2022-09-04T15:05:34.496Z,100349.84
2022-09-04T15:09:39.424Z,100349.13
2022-09-04T15:13:52.705Z,100359.84
2022-09-04T15:18:20.143Z,100354.63
2022-09-04T15:22:55.299Z,100356.06
2022-09-04T15:27:12.711Z,100364.69
2022-09-04T15:31:26.562Z,100362.56
2022-09-04T15:35:33.337Z,100353.16
2022-09-04T15:40:04.649Z,100373.97
2022-09-04T15:44:30.116Z,100368.28
2022-09-04T15:48:45.941Z,100362.56
2022-09-04T15:53:30.320Z,100368.06
2022-09-04T15:57:57.436Z,100362.53
2022-09-04T16:02:13.144Z,100381.72
2022-09-04T16:06:54.547Z,100378.72
2022-09-04T16:11:24.071Z,100375.34
2022-09-04T16:16:04.019Z,100385.22
2022-09-04T16:20:50.926Z,100387.50
2022-09-04T16:25:27.147Z,100397.25
2022-09-04T16:29:36.912Z,100410.38
2022-09-04T16:33:47.089Z,100397.91
2022-09-04T16:38:17.575Z,100408.09
2022-09-04T16:42:29.346Z,100394.78
2022-09-04T16:46:35.432Z,100399.91
2022-09-04T16:50:43.650Z,100398.19
2022-09-04T16:54:49.131Z,100403.22
2022-09-04T16:59:08.914Z,100429.88
2022-09-04T17:03:46.942Z,100420.00
2022-09-04T17:08:23.161Z,100414.03
2022-09-04T17:12:51.225Z,100419.03
2022-09-04T17:17:31.351Z,100438.91
2022-09-04T17:28:58.037Z,100431.28
2022-09-04T17:29:09.733Z,100434.28
2022-09-04T17:31:57.763Z,100443.34
2022-09-04T17:40:33.704Z,100430.34
2022-09-04T17:41:36.669Z,100441.13
2022-09-04T17:46:32.609Z,100456.63
2022-09-04T17:50:44.447Z,100444.38
2022-09-04T17:59:32.897Z,100465.28
2022-09-04T18:09:03.602Z,100488.91
2022-09-04T18:13:52.938Z,100483.25
2022-09-04T18:18:25.021Z,100491.47
2022-09-04T18:23:34.333Z,100479.84
2022-09-04T18:28:21.877Z,100502.63
2022-09-04T18:37:16.158Z,100503.44
2022-09-04T18:37:47.095Z,100501.63
2022-09-04T18:50:21.946Z,100514.94
2022-09-04T18:50:35.293Z,100519.44
2022-09-04T18:51:20.785Z,100527.81
2022-09-04T18:55:42.402Z,100529.69
2022-09-04T18:59:44.376Z,100531.72
2022-09-04T19:04:31.835Z,100536.84
2022-09-04T19:08:40.117Z,100536.00
2022-09-04T19:13:11.610Z,100528.59
2022-09-04T19:17:36.678Z,100536.34
2022-09-04T19:21:46.257Z,100542.88
2022-09-04T19:26:16.747Z,100542.88
2022-09-04T19:30:24.936Z,100545.69
2022-09-04T19:34:51.551Z,100548.13
2022-09-04T19:45:55.527Z,100562.41
2022-09-04T19:46:17.428Z,100563.22
2022-09-04T19:51:26.983Z,100562.97
2022-09-04T19:53:59.557Z,100562.72
2022-09-04T19:58:12.845Z,100566.31
2022-09-04T20:02:31.861Z,100578.97
2022-09-04T20:07:00.890Z,100573.00
2022-09-04T20:11:46.309Z,100575.81
2022-09-04T20:16:23.733Z,100571.47
2022-09-04T20:20:28.651Z,100580.06
2022-09-04T20:25:01.189Z,100577.53
2022-09-04T20:29:27.758Z,100589.16
2022-09-04T20:33:33.266Z,100579.72
2022-09-04T20:37:56.221Z,100591.03
2022-09-04T20:42:28.966Z,100588.94
2022-09-04T20:52:40.767Z,100593.41
2022-09-04T20:53:05.101Z,100594.94
2022-09-04T20:55:58.587Z,100585.81
2022-09-04T21:03:08.524Z,100592.13
2022-09-04T21:04:46.601Z,100593.44
2022-09-04T21:09:10.540Z,100600.94
2022-09-04T21:13:44.359Z,100605.19
2022-09-04T21:18:20.479Z,100605.50
2022-09-04T21:22:59.588Z,100612.00
2022-09-04T21:27:32.986Z,100623.53
2022-09-04T21:32:09.177Z,100620.00
2022-09-04T21:36:26.717Z,100622.75
2022-09-04T21:41:16.150Z,100622.66
2022-09-04T21:45:35.874Z,100630.53
2022-09-04T21:50:23.010Z,100627.16
2022-09-04T22:00:25.415Z,100630.09
2022-09-04T22:02:40.624Z,100637.16
2022-09-04T22:05:02.339Z,100641.97
2022-09-04T22:13:31.985Z,100640.41
2022-09-04T22:14:53.918Z,100636.41
2022-09-04T22:19:22.427Z,100643.63
2022-09-04T22:23:35.968Z,100645.00
2022-09-04T22:28:08.985Z,100644.50
2022-09-04T22:32:36.187Z,100647.25
2022-09-04T22:37:15.418Z,100637.84
2022-09-04T22:41:45.794Z,100639.19
2022-09-04T22:46:17.489Z,100649.03
2022-09-04T22:51:25.225Z,100650.19
2022-09-04T22:56:05.271Z,100652.41
2022-09-04T23:00:19.185Z,100641.97
2022-09-04T23:04:24.126Z,100656.13
2022-09-04T23:13:49.987Z,100646.03
2022-09-04T23:14:06.613Z,100648.59
2022-09-04T23:22:47.858Z,100648.00
2022-09-04T23:26:53.815Z,100654.13
2022-09-04T23:28:52.405Z,100652.00
2022-09-04T23:33:27.682Z,100648.06
2022-09-04T23:38:00.649Z,100647.16
2022-09-04T23:42:24.999Z,100647.66
2022-09-04T23:47:47.098Z,100646.97
2022-09-04T23:52:12.575Z,100655.94
2022-09-04T23:56:27.861Z,100664.91
